createdAt,value
2019-02-03T00:01:39.724Z,100123.00
2019-02-03T00:04:07.942Z,100129.95
2019-02-03T00:06:36.564Z,100142.93
2019-02-03T00:09:10.714Z,100152.29
2019-02-03T00:11:37.869Z,100159.65
2019-02-03T00:14:05.121Z,100170.55
2019-02-03T00:16:32.753Z,100177.05
2019-02-03T00:19:00.529Z,100176.36
2019-02-03T00:21:27.625Z,100168.64
2019-02-03T00:23:54.651Z,100173.70
2019-02-03T00:26:22.157Z,100178.68
2019-02-03T00:28:49.224Z,100177.03
2019-02-03T00:31:17.733Z,100187.42
2019-02-03T00:33:44.495Z,100196.64
2019-02-03T00:36:11.267Z,100189.69
2019-02-03T00:38:38.723Z,100193.84
2019-02-03T00:41:06.324Z,100190.55
2019-02-03T00:43:33.333Z,100179.91
2019-02-03T00:46:00.435Z,100192.84
2019-02-03T00:48:27.101Z,100199.23
2019-02-03T00:50:54.167Z,100208.41
2019-02-03T00:53:21.872Z,100193.59
2019-02-03T00:55:48.745Z,100197.16
2019-02-03T00:58:15.993Z,100189.77
2019-02-03T01:00:43.193Z,100186.98
2019-02-03T01:03:10.587Z,100187.70
2019-02-03T01:05:38.067Z,100200.47
2019-02-03T01:08:06.602Z,100194.18
2019-02-03T01:10:33.754Z,100199.33
2019-02-03T01:13:01.752Z,100204.97
2019-02-03T01:15:28.521Z,100195.90
2019-02-03T01:17:55.410Z,100200.22
2019-02-03T01:20:22.539Z,100205.76
2019-02-03T01:22:50.001Z,100215.52
2019-02-03T01:25:17.185Z,100215.43
2019-02-03T01:27:44.703Z,100231.03
2019-02-03T01:30:17.451Z,100228.77
2019-02-03T01:32:45.775Z,100228.87
2019-02-03T01:35:13.200Z,100236.39
2019-02-03T01:37:41.024Z,100234.20
2019-02-03T01:40:12.017Z,100238.13
2019-02-03T01:42:39.486Z,100237.92
2019-02-03T01:45:08.632Z,100231.91
2019-02-03T01:47:37.418Z,100231.33
2019-02-03T01:50:05.919Z,100236.59
2019-02-03T01:52:33.314Z,100233.80
2019-02-03T01:55:00.953Z,100240.43
2019-02-03T01:57:28.142Z,100239.45
2019-02-03T01:59:55.463Z,100244.76
2019-02-03T02:02:23.247Z,100247.84
2019-02-03T02:04:50.233Z,100255.27
2019-02-03T02:07:17.175Z,100258.39
2019-02-03T02:09:44.262Z,100261.19
2019-02-03T02:12:11.047Z,100268.97
2019-02-03T02:14:37.740Z,100272.17
2019-02-03T02:17:05.062Z,100271.16
2019-02-03T02:19:32.766Z,100270.94
2019-02-03T02:22:00.545Z,100263.08
2019-02-03T02:24:27.696Z,100255.05
2019-02-03T02:26:55.065Z,100261.14
2019-02-03T02:29:21.848Z,100264.93
2019-02-03T02:31:49.226Z,100268.34
2019-02-03T02:34:15.925Z,100263.40
2019-02-03T02:36:42.959Z,100263.84
2019-02-03T02:39:11.203Z,100265.66
2019-02-03T02:41:38.445Z,100261.84
2019-02-03T02:44:06.075Z,100270.83
2019-02-03T02:46:32.856Z,100274.33
2019-02-03T02:48:59.798Z,100278.53
2019-02-03T02:51:27.425Z,100289.47
2019-02-03T02:53:54.221Z,100290.63
2019-02-03T02:56:21.458Z,100287.65
2019-02-03T02:58:48.614Z,100290.78
2019-02-03T03:01:15.706Z,100292.39
2019-02-03T03:03:43.494Z,100297.54
2019-02-03T03:06:10.361Z,100301.45
2019-02-03T03:08:37.511Z,100306.92
2019-02-03T03:11:54.541Z,100308.08
2019-02-03T03:17:17.916Z,100305.24
2019-02-03T03:19:45.349Z,100318.04
2019-02-03T03:22:12.106Z,100313.86
2019-02-03T03:24:38.799Z,100319.12
2019-02-03T03:27:07.905Z,100325.30
2019-02-03T03:29:34.836Z,100329.66
2019-02-03T03:32:02.375Z,100342.06
2019-02-03T03:34:29.271Z,100343.45
2019-02-03T03:36:56.321Z,100350.06
2019-02-03T03:39:23.034Z,100345.86
2019-02-03T03:41:49.803Z,100348.92
2019-02-03T03:44:17.271Z,100355.52
2019-02-03T03:46:44.718Z,100356.23
2019-02-03T03:49:11.515Z,100354.06
2019-02-03T03:51:39.127Z,100351.09
2019-02-03T03:54:06.023Z,100351.16
2019-02-03T03:56:33.118Z,100363.81
2019-02-03T03:59:00.885Z,100361.18
2019-02-03T04:01:29.457Z,100366.91
2019-02-03T04:03:56.909Z,100361.97
2019-02-03T04:06:24.507Z,100359.95
2019-02-03T04:08:51.530Z,100359.67
2019-02-03T04:11:18.347Z,100344.05
2019-02-03T04:13:45.528Z,100336.27
2019-02-03T04:16:13.182Z,100333.72
2019-02-03T04:18:40.833Z,100335.83
2019-02-03T04:21:07.994Z,100339.67
2019-02-03T04:23:35.442Z,100351.16
2019-02-03T04:26:02.207Z,100358.50
2019-02-03T04:28:28.912Z,100357.20
2019-02-03T04:30:56.377Z,100370.27
2019-02-03T04:33:23.054Z,100381.75
2019-02-03T04:35:49.721Z,100397.73
2019-02-03T04:38:16.793Z,100405.73
2019-02-03T04:40:44.373Z,100403.69
2019-02-03T04:43:11.178Z,100401.08
2019-02-03T04:45:38.244Z,100392.06
2019-02-03T04:48:05.038Z,100390.16
2019-02-03T04:50:35.082Z,100399.34
2019-02-03T04:53:02.130Z,100395.63
2019-02-03T04:55:29.518Z,100404.50
2019-02-03T04:57:56.854Z,100411.67
2019-02-03T05:00:24.538Z,100410.44
2019-02-03T05:02:52.176Z,100415.68
2019-02-03T05:05:20.218Z,100418.66
2019-02-03T05:07:50.361Z,100424.04
2019-02-03T05:10:18.518Z,100438.20
2019-02-03T05:12:46.445Z,100442.42
2019-02-03T05:15:16.379Z,100450.42
2019-02-03T05:17:43.515Z,100469.40
2019-02-03T05:20:12.447Z,100483.48
2019-02-03T05:22:39.251Z,100481.61
2019-02-03T05:25:08.945Z,100474.28
2019-02-03T05:27:36.073Z,100489.03
2019-02-03T05:30:05.938Z,100492.44
2019-02-03T05:32:32.840Z,100489.96
2019-02-03T05:35:00.727Z,100493.30
2019-02-03T05:37:27.603Z,100496.08
2019-02-03T05:39:55.160Z,100499.34
2019-02-03T05:42:23.044Z,100508.63
2019-02-03T05:44:50.630Z,100513.17
2019-02-03T05:47:18.804Z,100516.44
2019-02-03T05:49:45.472Z,100524.70
2019-02-03T05:52:12.481Z,100522.16
2019-02-03T05:54:39.444Z,100531.11
2019-02-03T05:57:06.474Z,100536.55
2019-02-03T05:59:33.322Z,100539.32
2019-02-03T06:02:01.090Z,100548.47
2019-02-03T06:04:28.309Z,100550.44
2019-02-03T06:06:55.567Z,100553.71
2019-02-03T06:09:22.461Z,100556.48
2019-02-03T06:11:49.969Z,100558.72
2019-02-03T06:14:16.758Z,100562.56
2019-02-03T06:16:43.886Z,100560.83
2019-02-03T06:19:11.648Z,100570.47
2019-02-03T06:21:39.890Z,100572.81
2019-02-03T06:24:06.960Z,100575.53
2019-02-03T06:26:34.351Z,100585.91
2019-02-03T06:29:01.699Z,100584.17
2019-02-03T06:31:28.802Z,100593.75
2019-02-03T06:33:55.591Z,100604.75
2019-02-03T06:36:23.182Z,100617.53
2019-02-03T06:38:52.360Z,100614.20
2019-02-03T06:41:19.021Z,100612.54
2019-02-03T06:43:46.876Z,100619.02
2019-02-03T06:46:31.921Z,100622.78
2019-02-03T06:49:02.064Z,100633.67
2019-02-03T06:51:29.974Z,100628.55
2019-02-03T06:53:57.135Z,100635.09
2019-02-03T06:56:24.698Z,100639.15
2019-02-03T06:58:52.354Z,100644.16
2019-02-03T07:01:19.609Z,100640.08
2019-02-03T07:03:46.663Z,100637.05
2019-02-03T07:06:13.863Z,100635.56
2019-02-03T07:08:41.878Z,100636.62
2019-02-03T07:11:09.125Z,100649.62
2019-02-03T07:13:35.904Z,100655.80
2019-02-03T07:16:02.820Z,100658.98
2019-02-03T07:18:29.473Z,100662.34
2019-02-03T07:20:56.153Z,100664.13
2019-02-03T07:23:23.408Z,100654.73
2019-02-03T07:25:50.317Z,100666.84
2019-02-03T07:28:17.492Z,100674.20
2019-02-03T07:30:45.321Z,100674.73
2019-02-03T07:33:12.503Z,100675.80
2019-02-03T07:35:40.118Z,100678.89
2019-02-03T07:38:06.897Z,100684.64
2019-02-03T07:40:34.726Z,100687.93
2019-02-03T07:43:01.778Z,100695.46
2019-02-03T07:45:28.543Z,100697.23
2019-02-03T07:47:56.370Z,100695.88
2019-02-03T07:50:23.707Z,100696.95
2019-02-03T07:52:51.574Z,100698.61
2019-02-03T07:55:18.610Z,100705.02
2019-02-03T07:57:46.803Z,100709.98
2019-02-03T08:00:14.713Z,100711.76
2019-02-03T08:02:41.754Z,100720.66
2019-02-03T08:05:08.543Z,100727.82
2019-02-03T08:07:35.449Z,100734.92
2019-02-03T08:10:03.642Z,100740.99
2019-02-03T08:12:31.851Z,100745.52
2019-02-03T08:14:59.272Z,100741.86
2019-02-03T08:17:26.437Z,100751.18
2019-02-03T08:19:54.117Z,100753.55
2019-02-03T08:22:21.586Z,100762.31
2019-02-03T08:24:48.744Z,100764.47
2019-02-03T08:27:15.869Z,100768.49
2019-02-03T08:29:42.786Z,100776.67
2019-02-03T08:32:10.723Z,100782.29
2019-02-03T08:34:38.122Z,100793.21
2019-02-03T08:37:05.461Z,100797.02
2019-02-03T08:39:32.538Z,100805.19
2019-02-03T08:41:59.214Z,100806.58
2019-02-03T08:44:27.627Z,100810.02
2019-02-03T08:46:54.918Z,100811.28
2019-02-03T08:49:23.137Z,100820.70
2019-02-03T08:51:51.090Z,100813.90
2019-02-03T08:54:20.647Z,100823.48
2019-02-03T08:56:49.875Z,100822.14
2019-02-03T08:59:17.847Z,100831.61
2019-02-03T09:01:46.522Z,100826.86
2019-02-03T09:04:15.183Z,100825.96
2019-02-03T09:06:43.781Z,100832.95
2019-02-03T09:09:11.804Z,100842.65
2019-02-03T09:11:39.694Z,100846.41
2019-02-03T09:14:17.728Z,100841.72
2019-02-03T09:16:55.835Z,100842.48
2019-02-03T09:19:25.755Z,100842.30
2019-02-03T09:21:56.917Z,100839.14
2019-02-03T09:24:24.394Z,100839.39
2019-02-03T09:26:53.002Z,100847.52
2019-02-03T09:29:20.186Z,100851.80
2019-02-03T09:31:47.790Z,100852.09
2019-02-03T09:34:15.403Z,100851.48
2019-02-03T09:36:42.415Z,100855.27
2019-02-03T09:40:38.117Z,100858.36
2019-02-03T09:46:45.071Z,100872.28
2019-02-03T09:49:14.110Z,100873.69
2019-02-03T09:51:40.979Z,100879.70
2019-02-03T09:54:08.677Z,100880.00
2019-02-03T09:56:35.929Z,100889.04
2019-02-03T09:59:03.993Z,100890.21
2019-02-03T10:01:32.081Z,100892.05
2019-02-03T10:03:59.728Z,100898.75
2019-02-03T10:06:26.793Z,100896.44
2019-02-03T10:08:54.330Z,100895.74
2019-02-03T10:11:23.037Z,100904.80
2019-02-03T10:13:49.875Z,100914.28
2019-02-03T10:16:16.658Z,100914.34
2019-02-03T10:18:44.897Z,100905.84
2019-02-03T10:21:12.732Z,100916.16
2019-02-03T10:23:41.426Z,100923.00
2019-02-03T10:26:08.417Z,100923.84
2019-02-03T10:28:36.749Z,100930.21
2019-02-03T10:31:03.541Z,100934.70
2019-02-03T10:33:30.800Z,100941.35
2019-02-03T10:35:57.548Z,100946.75
2019-02-03T10:38:24.918Z,100948.29
2019-02-03T10:40:53.518Z,100954.44
2019-02-03T10:43:21.505Z,100953.15
2019-02-03T10:45:48.937Z,100958.81
2019-02-03T10:48:16.501Z,100952.77
2019-02-03T10:50:43.675Z,100949.77
2019-02-03T10:53:10.851Z,100957.88
2019-02-03T10:55:37.748Z,100954.66
2019-02-03T10:58:05.497Z,100954.81
2019-02-03T11:00:33.898Z,100955.27
2019-02-03T11:03:01.461Z,100957.95
2019-02-03T11:05:31.410Z,100959.09
2019-02-03T11:08:00.084Z,100963.77
2019-02-03T11:10:27.749Z,100955.28
2019-02-03T11:12:55.475Z,100966.20
2019-02-03T11:15:23.028Z,100964.92
2019-02-03T11:17:50.490Z,100969.77
2019-02-03T11:20:22.443Z,100976.80
2019-02-03T11:22:50.121Z,100983.41
2019-02-03T11:25:18.744Z,100981.77
2019-02-03T11:27:46.973Z,100921.84
2019-02-03T11:30:16.759Z,100995.71
2019-02-03T11:32:44.109Z,100997.83
2019-02-03T11:35:12.728Z,100998.11
2019-02-03T11:37:40.583Z,100994.60
2019-02-03T11:40:10.554Z,101002.46
2019-02-03T11:42:37.647Z,101000.72
2019-02-03T11:45:05.831Z,101003.33
2019-02-03T11:47:33.409Z,100998.31
2019-02-03T11:50:00.395Z,101003.28
2019-02-03T11:52:27.816Z,101007.05
2019-02-03T11:54:55.545Z,101012.59
2019-02-03T11:57:23.423Z,101028.41
2019-02-03T11:59:50.480Z,101018.27
2019-02-03T12:02:17.808Z,101028.38
2019-02-03T12:04:44.992Z,101029.11
2019-02-03T12:07:11.991Z,101034.70
2019-02-03T12:09:38.697Z,101028.38
2019-02-03T12:12:05.941Z,101026.02
2019-02-03T12:14:32.642Z,101038.10
2019-02-03T12:17:08.839Z,101038.60
2019-02-03T12:19:36.669Z,101040.50
2019-02-03T12:22:04.171Z,101044.72
2019-02-03T12:24:31.293Z,101030.22
2019-02-03T12:26:58.844Z,101046.15
2019-02-03T12:29:28.543Z,101038.95
2019-02-03T12:31:54.679Z,101044.45
2019-02-03T12:34:21.739Z,101045.83
2019-02-03T12:36:49.488Z,101050.63
2019-02-03T12:39:17.248Z,101052.92
2019-02-03T12:41:44.331Z,101052.55
2019-02-03T12:44:11.165Z,101064.23
2019-02-03T12:46:38.935Z,101062.69
2019-02-03T12:49:05.863Z,101059.42
2019-02-03T12:51:32.573Z,101062.77
2019-02-03T12:54:00.458Z,101063.17
2019-02-03T12:56:29.041Z,101063.31
2019-02-03T12:58:55.961Z,101063.63
2019-02-03T13:01:23.026Z,101069.92
2019-02-03T13:03:49.803Z,101077.92
2019-02-03T13:06:17.741Z,101079.41
2019-02-03T13:08:44.886Z,101074.31
2019-02-03T13:11:12.552Z,101082.05
2019-02-03T13:13:39.893Z,101080.24
2019-02-03T13:16:07.059Z,101092.31
2019-02-03T13:18:34.229Z,101091.39
2019-02-03T13:21:01.451Z,101094.42
2019-02-03T13:23:28.974Z,101096.64
2019-02-03T13:25:56.277Z,101096.86
2019-02-03T13:28:23.188Z,101103.95
2019-02-03T13:30:50.457Z,101095.70
2019-02-03T13:33:17.919Z,101101.30
2019-02-03T13:35:44.800Z,101108.55
2019-02-03T13:38:11.833Z,101111.42
2019-02-03T13:40:41.688Z,101104.15
2019-02-03T13:43:09.488Z,101101.03
2019-02-03T13:45:38.658Z,101106.69
2019-02-03T13:48:06.869Z,101110.61
2019-02-03T13:50:34.529Z,101112.56
2019-02-03T13:53:01.766Z,101115.97
2019-02-03T13:55:28.842Z,101116.89
2019-02-03T13:57:56.160Z,101123.76
2019-02-03T14:00:28.581Z,101124.80
2019-02-03T14:02:55.530Z,101128.87
2019-02-03T14:05:22.956Z,101130.47
2019-02-03T14:07:49.901Z,101135.59
2019-02-03T14:10:28.701Z,101142.45
2019-02-03T14:12:57.716Z,101148.66
2019-02-03T14:15:25.006Z,101155.75
2019-02-03T14:17:53.114Z,101160.28
2019-02-03T14:20:22.706Z,101160.77
2019-02-03T14:22:50.826Z,101166.92
2019-02-03T14:25:19.110Z,101165.28
2019-02-03T14:27:46.655Z,101155.48
2019-02-03T14:30:40.872Z,101164.98
2019-02-03T14:33:07.510Z,101168.36
2019-02-03T14:35:34.717Z,101170.13
2019-02-03T14:38:03.215Z,101175.94
2019-02-03T14:40:31.376Z,101171.41
2019-02-03T14:43:02.005Z,101172.52
2019-02-03T14:45:27.919Z,101180.04
2019-02-03T14:47:55.083Z,101180.51
2019-02-03T14:50:21.950Z,101175.52
2019-02-03T14:52:49.985Z,101177.78
2019-02-03T14:55:19.642Z,101177.45
2019-02-03T14:57:47.982Z,101181.10
2019-02-03T15:00:23.863Z,101188.38
2019-02-03T15:02:51.362Z,101186.77
2019-02-03T15:05:20.179Z,101188.50
2019-02-03T15:07:48.251Z,101193.36
2019-02-03T15:10:16.421Z,101192.76
2019-02-03T15:12:43.935Z,101194.53
2019-02-03T15:15:12.738Z,101195.39
2019-02-03T15:17:43.352Z,101199.94
2019-02-03T15:20:13.927Z,101200.35
2019-02-03T15:22:51.352Z,101201.91
2019-02-03T15:25:18.492Z,101206.46
2019-02-03T15:27:45.526Z,101212.66
2019-02-03T15:30:21.695Z,101211.17
2019-02-03T15:32:49.219Z,101205.05
2019-02-03T15:35:16.548Z,101205.34
2019-02-03T15:37:43.688Z,101201.04
2019-02-03T15:40:12.171Z,101209.78
2019-02-03T15:42:39.363Z,101206.58
2019-02-03T15:45:08.219Z,101212.28
2019-02-03T15:47:36.010Z,101213.18
2019-02-03T15:50:05.294Z,101211.16
2019-02-03T15:52:32.874Z,101215.29
2019-02-03T15:55:00.307Z,101214.70
2019-02-03T15:57:30.499Z,101213.59
2019-02-03T15:59:58.049Z,101213.86
2019-02-03T16:02:25.689Z,101216.19
2019-02-03T16:04:52.914Z,101216.44
2019-02-03T16:07:19.579Z,101219.33
2019-02-03T16:09:46.946Z,101221.46
2019-02-03T16:12:14.243Z,101221.84
2019-02-03T16:14:41.651Z,101224.52
2019-02-03T16:17:09.749Z,101227.79
2019-02-03T16:19:37.986Z,101236.03
2019-02-03T16:22:05.250Z,101234.25
2019-02-03T16:24:32.487Z,101235.27
2019-02-03T16:27:00.232Z,101237.27
2019-02-03T16:29:27.289Z,101236.63
2019-02-03T16:31:54.234Z,101248.44
2019-02-03T16:34:20.922Z,101246.23
2019-02-03T16:36:48.129Z,101254.60
2019-02-03T16:39:15.032Z,101251.38
2019-02-03T16:41:41.933Z,101254.97
2019-02-03T16:44:09.521Z,101258.95
2019-02-03T16:46:58.570Z,101258.50
2019-02-03T16:49:26.578Z,101276.99
2019-02-03T16:51:55.975Z,101267.22
2019-02-03T16:54:23.575Z,101272.77
2019-02-03T16:56:59.603Z,101276.76
2019-02-03T16:59:29.670Z,101273.77
2019-02-03T17:01:56.878Z,101270.83
2019-02-03T17:04:24.693Z,101275.64
2019-02-03T17:06:52.005Z,101285.23
2019-02-03T17:09:19.578Z,101287.56
2019-02-03T17:11:49.402Z,101285.31
2019-02-03T17:14:16.500Z,101295.51
2019-02-03T17:16:43.982Z,101296.09
2019-02-03T17:19:10.661Z,101293.62
2019-02-03T17:21:37.873Z,101302.25
2019-02-03T17:24:05.840Z,101299.62
2019-02-03T17:26:33.839Z,101298.86
2019-02-03T17:29:01.746Z,101293.36
2019-02-03T17:31:28.759Z,101299.00
2019-02-03T17:33:56.382Z,101305.41
2019-02-03T17:36:23.725Z,101302.67
2019-02-03T17:38:53.895Z,101309.04
2019-02-03T17:41:20.709Z,101311.55
2019-02-03T17:43:47.502Z,101313.14
2019-02-03T17:46:15.181Z,101316.50
2019-02-03T17:48:43.706Z,101316.34
2019-02-03T17:51:11.005Z,101315.28
2019-02-03T17:53:37.780Z,101319.66
2019-02-03T17:56:05.342Z,101329.44
2019-02-03T17:58:32.921Z,101327.03
2019-02-03T18:01:03.042Z,101330.68
2019-02-03T18:03:30.478Z,101327.09
2019-02-03T18:05:58.149Z,101334.06
2019-02-03T18:08:25.372Z,101333.18
2019-02-03T18:10:52.254Z,101345.14
2019-02-03T18:13:20.088Z,101345.14
2019-02-03T18:15:47.306Z,101344.13
2019-02-03T18:18:13.974Z,101348.63
2019-02-03T18:20:40.676Z,101352.67
2019-02-03T18:23:08.222Z,101353.72
2019-02-03T18:25:36.057Z,101354.30
2019-02-03T18:28:04.007Z,101358.06
2019-02-03T18:30:31.863Z,101363.01
2019-02-03T18:32:59.638Z,101368.59
2019-02-03T18:35:26.314Z,101367.03
2019-02-03T18:37:54.244Z,101372.69
2019-02-03T18:40:21.498Z,101372.02
2019-02-03T18:42:49.378Z,101374.34
2019-02-03T18:45:24.459Z,101389.90
2019-02-03T18:47:51.450Z,101389.54
2019-02-03T18:50:19.965Z,101401.30
2019-02-03T18:52:48.902Z,101401.01
2019-02-03T18:55:19.803Z,101396.55
2019-02-03T18:57:46.907Z,101397.59
2019-02-03T19:00:16.906Z,101403.05
2019-02-03T19:02:44.107Z,101399.48
2019-02-03T19:05:13.378Z,101404.08
2019-02-03T19:07:41.038Z,101402.83
2019-02-03T19:10:12.319Z,101401.82
2019-02-03T19:12:39.839Z,101397.05
2019-02-03T19:15:08.854Z,101401.80
2019-02-03T19:17:36.768Z,101406.38
2019-02-03T19:20:06.327Z,101408.23
2019-02-03T19:22:33.953Z,101411.27
2019-02-03T19:25:01.963Z,101406.45
2019-02-03T19:27:29.267Z,101414.77
2019-02-03T19:29:56.074Z,101412.87
2019-02-03T19:32:23.128Z,101414.59
2019-02-03T19:34:50.943Z,101419.37
2019-02-03T19:37:18.907Z,101420.43
2019-02-03T19:39:46.149Z,101424.14
2019-02-03T19:42:13.227Z,101427.36
2019-02-03T19:44:40.980Z,101432.30
2019-02-03T19:47:08.479Z,101435.88
2019-02-03T19:49:46.255Z,101425.60
2019-02-03T19:52:06.837Z,101433.03
2019-02-03T19:54:34.746Z,101436.77
2019-02-03T19:57:02.305Z,101442.41
2019-02-03T19:59:29.259Z,101445.59
2019-02-03T20:01:57.165Z,101446.13
2019-02-03T20:04:24.727Z,101435.84
2019-02-03T20:06:51.969Z,101445.95
2019-02-03T20:09:19.914Z,101447.51
2019-02-03T20:11:46.999Z,101454.41
2019-02-03T20:14:14.763Z,101451.08
2019-02-03T20:16:42.419Z,101462.20
2019-02-03T20:19:09.668Z,101469.75
2019-02-03T20:21:37.053Z,101465.11
2019-02-03T20:24:04.629Z,101477.70
2019-02-03T20:26:32.603Z,101478.41
2019-02-03T20:28:59.440Z,101483.53
2019-02-03T20:31:26.958Z,101485.51
2019-02-03T20:33:57.765Z,101492.91
2019-02-03T20:36:25.690Z,101493.23
2019-02-03T20:38:52.878Z,101501.91
2019-02-03T20:41:20.291Z,101502.09
2019-02-03T20:43:48.408Z,101502.45
2019-02-03T20:46:15.924Z,101508.80
2019-02-03T20:48:43.293Z,101513.22
2019-02-03T20:51:11.419Z,101518.69
2019-02-03T20:53:39.884Z,101520.97
2019-02-03T20:56:08.269Z,101519.92
2019-02-03T20:58:35.832Z,101520.64
2019-02-03T21:01:04.210Z,101519.05
2019-02-03T21:03:32.194Z,101517.81
2019-02-03T21:05:59.438Z,101522.20
2019-02-03T21:08:27.059Z,101520.45
2019-02-03T21:10:55.045Z,101530.16
2019-02-03T21:13:21.717Z,101535.78
2019-02-03T21:15:49.558Z,101532.99
2019-02-03T21:18:17.171Z,101535.46
2019-02-03T21:20:45.553Z,101538.97
2019-02-03T21:23:13.280Z,101541.96
2019-02-03T21:25:41.469Z,101549.20
2019-02-03T21:28:09.813Z,101549.56
2019-02-03T21:30:38.004Z,101556.78
2019-02-03T21:33:06.190Z,101563.14
2019-02-03T21:35:33.311Z,101555.90
2019-02-03T21:38:01.843Z,101558.01
2019-02-03T21:40:30.769Z,101568.25
2019-02-03T21:42:58.638Z,101560.67
2019-02-03T21:45:26.735Z,101572.14
2019-02-03T21:47:54.508Z,101572.67
2019-02-03T21:50:24.062Z,101577.09
2019-02-03T21:52:54.057Z,101570.72
2019-02-03T21:55:22.295Z,101574.93
2019-02-03T21:57:50.893Z,101575.13
2019-02-03T22:00:23.418Z,101571.79
2019-02-03T22:02:50.915Z,101573.89
2019-02-03T22:05:17.681Z,101574.06
2019-02-03T22:07:45.226Z,101573.17
2019-02-03T22:10:15.353Z,101574.77
2019-02-03T22:12:42.247Z,101578.27
2019-02-03T22:15:09.321Z,101576.52
2019-02-03T22:17:37.475Z,101577.59
2019-02-03T22:20:07.281Z,101574.25
2019-02-03T22:22:35.076Z,101581.81
2019-02-03T22:25:03.594Z,101587.62
2019-02-03T22:27:31.543Z,101587.83
2019-02-03T22:29:58.554Z,101594.52
2019-02-03T22:32:26.403Z,101600.70
2019-02-03T22:34:53.466Z,101602.81
2019-02-03T22:37:21.407Z,101593.66
2019-02-03T22:39:48.185Z,101592.06
2019-02-03T22:42:15.395Z,101599.83
2019-02-03T22:44:42.894Z,101602.28
2019-02-03T22:47:09.573Z,101608.81
2019-02-03T22:49:36.861Z,101620.61
2019-02-03T22:52:04.640Z,101620.97
2019-02-03T22:54:31.414Z,101623.63
2019-02-03T22:56:58.836Z,101628.92
2019-02-03T22:59:26.279Z,101629.45
2019-02-03T23:01:53.062Z,101632.58
2019-02-03T23:04:23.677Z,101633.29
2019-02-03T23:06:51.020Z,101631.87
2019-02-03T23:09:22.642Z,101633.77
2019-02-03T23:11:49.938Z,101635.55
2019-02-03T23:14:17.397Z,101629.40
2019-02-03T23:16:44.397Z,101640.88
2019-02-03T23:19:11.717Z,101647.88
2019-02-03T23:21:39.265Z,101652.47
2019-02-03T23:24:06.025Z,101642.73
2019-02-03T23:26:33.184Z,101646.63
2019-02-03T23:28:59.997Z,101646.41
2019-02-03T23:31:26.860Z,101642.38
2019-02-03T23:33:53.757Z,101642.20
2019-02-03T23:36:21.297Z,101640.77
2019-02-03T23:38:48.626Z,101642.73
2019-02-03T23:41:16.374Z,101649.08
2019-02-03T23:43:43.584Z,101651.56
2019-02-03T23:46:11.151Z,101650.87
2019-02-03T23:48:38.068Z,101651.61
2019-02-03T23:51:04.853Z,101652.84
2019-02-03T23:53:33.132Z,101649.83
2019-02-03T23:56:00.466Z,101652.84
2019-02-03T23:58:27.129Z,101658.08
